createdAt,value
2018-07-13T00:00:33.185Z,0
2018-07-13T00:01:41.834Z,0
2018-07-13T00:02:50.487Z,0
2018-07-13T00:03:59.121Z,0
2018-07-13T00:05:07.770Z,0
2018-07-13T00:06:16.409Z,0
2018-07-13T00:07:25.059Z,0
2018-07-13T00:08:33.694Z,0
2018-07-13T00:09:42.345Z,0
2018-07-13T00:10:51.250Z,0
2018-07-13T00:12:00.163Z,0
2018-07-13T00:13:08.799Z,0
2018-07-13T00:14:17.449Z,0
2018-07-13T00:15:26.353Z,0
2018-07-13T00:16:35.272Z,0
2018-07-13T00:17:43.916Z,0
2018-07-13T00:18:52.557Z,0
2018-07-13T00:20:01.201Z,0
2018-07-13T00:21:09.846Z,0
2018-07-13T00:22:18.501Z,0
2018-07-13T00:23:27.144Z,0
2018-07-13T00:24:35.793Z,0
2018-07-13T00:25:44.428Z,0
2018-07-13T00:26:53.085Z,0
2018-07-13T00:28:01.728Z,0
2018-07-13T00:29:10.378Z,0
2018-07-13T00:30:19.016Z,0
2018-07-13T00:31:27.930Z,0
2018-07-13T00:32:36.574Z,0
2018-07-13T00:33:45.223Z,0
2018-07-13T00:34:53.859Z,0
2018-07-13T00:36:02.505Z,0
2018-07-13T00:37:11.157Z,0
2018-07-13T00:38:20.077Z,0
2018-07-13T00:39:28.726Z,0
2018-07-13T00:40:37.707Z,0
2018-07-13T00:41:46.631Z,0
2018-07-13T00:42:55.544Z,0
2018-07-13T00:44:04.462Z,0
2018-07-13T00:45:13.099Z,0
2018-07-13T00:46:21.744Z,0
2018-07-13T00:47:30.391Z,0
2018-07-13T00:48:39.041Z,0
2018-07-13T00:49:47.681Z,0
2018-07-13T00:50:56.339Z,0
2018-07-13T00:52:04.973Z,0
2018-07-13T00:53:13.628Z,0
2018-07-13T00:54:22.277Z,0
2018-07-13T00:55:30.922Z,0
2018-07-13T00:56:40.102Z,0
2018-07-13T00:57:48.744Z,0
2018-07-13T00:58:57.395Z,0
2018-07-13T01:00:06.048Z,0
2018-07-13T01:01:14.688Z,0
2018-07-13T01:02:23.331Z,0
2018-07-13T01:03:31.985Z,0
2018-07-13T01:04:40.634Z,0
2018-07-13T01:05:49.281Z,0
2018-07-13T01:06:57.917Z,0
2018-07-13T01:08:06.568Z,0
2018-07-13T01:09:15.212Z,0
2018-07-13T01:10:23.858Z,0
2018-07-13T01:11:32.498Z,0
2018-07-13T01:12:41.146Z,0
2018-07-13T01:13:49.792Z,0
2018-07-13T01:14:58.437Z,0
2018-07-13T01:16:07.086Z,0
2018-07-13T01:17:15.999Z,0
2018-07-13T01:18:24.632Z,0
2018-07-13T01:19:33.279Z,0
2018-07-13T01:20:41.928Z,0
2018-07-13T01:21:50.573Z,0
2018-07-13T01:22:59.216Z,0
2018-07-13T01:24:07.860Z,0
2018-07-13T01:25:16.510Z,0
2018-07-13T01:26:25.149Z,0
2018-07-13T01:27:33.801Z,0
2018-07-13T01:28:42.448Z,0
2018-07-13T01:29:51.098Z,0
2018-07-13T01:30:59.740Z,0
2018-07-13T01:32:08.389Z,0
2018-07-13T01:33:17.034Z,0
2018-07-13T01:34:25.942Z,0
2018-07-13T01:35:34.592Z,0
2018-07-13T01:36:43.245Z,0
2018-07-13T01:37:51.889Z,0
2018-07-13T01:39:00.530Z,0
2018-07-13T01:40:09.179Z,0
2018-07-13T01:41:17.824Z,0
2018-07-13T01:42:26.470Z,0
2018-07-13T01:43:35.116Z,0
2018-07-13T01:44:43.758Z,0
2018-07-13T01:45:52.407Z,0
2018-07-13T01:47:01.049Z,0
2018-07-13T01:48:09.698Z,0
2018-07-13T01:49:18.340Z,0
2018-07-13T01:50:26.985Z,0
2018-07-13T01:51:35.629Z,0
2018-07-13T01:52:44.272Z,0
2018-07-13T01:53:52.924Z,0
2018-07-13T01:55:01.570Z,0
2018-07-13T01:56:10.221Z,0
2018-07-13T01:57:18.861Z,0
2018-07-13T01:58:27.510Z,0
2018-07-13T01:59:36.157Z,0
2018-07-13T02:00:44.804Z,0
2018-07-13T02:01:53.445Z,0
2018-07-13T02:03:02.390Z,0
2018-07-13T02:04:11.039Z,0
2018-07-13T02:05:19.683Z,0
2018-07-13T02:06:28.874Z,0
2018-07-13T02:07:37.785Z,0
2018-07-13T02:08:46.699Z,0
2018-07-13T02:09:55.606Z,0
2018-07-13T02:11:04.251Z,0
2018-07-13T02:12:12.895Z,0
2018-07-13T02:13:21.540Z,0
2018-07-13T02:14:30.185Z,0
2018-07-13T02:15:38.832Z,0
2018-07-13T02:16:47.476Z,0
2018-07-13T02:17:56.703Z,0
2018-07-13T02:19:05.349Z,0
2018-07-13T02:20:13.996Z,0
2018-07-13T02:21:23.166Z,0
2018-07-13T02:22:31.820Z,0
2018-07-13T02:23:40.461Z,0
2018-07-13T02:24:49.116Z,0
2018-07-13T02:25:57.750Z,0
2018-07-13T02:27:06.395Z,0
2018-07-13T02:28:15.305Z,0
2018-07-13T02:29:23.946Z,0
2018-07-13T02:30:32.862Z,0
2018-07-13T02:31:41.770Z,0
2018-07-13T02:32:50.419Z,0
2018-07-13T02:33:59.080Z,0
2018-07-13T02:35:08.292Z,0
2018-07-13T02:36:17.214Z,0
2018-07-13T02:37:26.392Z,0
2018-07-13T02:38:35.034Z,0
2018-07-13T02:39:43.950Z,0
2018-07-13T02:40:52.595Z,0
2018-07-13T02:42:01.255Z,0
2018-07-13T02:43:10.433Z,0
2018-07-13T02:44:19.617Z,0
2018-07-13T02:45:28.518Z,0
2018-07-13T02:46:37.170Z,0
2018-07-13T02:47:45.826Z,0
2018-07-13T02:48:54.456Z,0
2018-07-13T02:50:03.374Z,0
2018-07-13T02:51:12.017Z,0
2018-07-13T02:52:20.676Z,0
2018-07-13T02:53:29.577Z,0
2018-07-13T02:54:38.227Z,0
2018-07-13T02:55:47.674Z,0
2018-07-13T02:56:56.853Z,0
2018-07-13T02:58:05.763Z,0
2018-07-13T02:59:14.679Z,0
2018-07-13T03:00:23.327Z,0
2018-07-13T03:01:32.727Z,0
2018-07-13T03:02:41.372Z,0
2018-07-13T03:03:50.013Z,0
2018-07-13T03:04:58.655Z,0
2018-07-13T03:06:07.299Z,0
2018-07-13T03:07:16.234Z,0
2018-07-13T03:08:24.865Z,0
2018-07-13T03:09:33.521Z,0
2018-07-13T03:10:42.157Z,0
2018-07-13T03:11:50.809Z,0
2018-07-13T03:12:59.453Z,0
2018-07-13T03:14:08.371Z,0
2018-07-13T03:15:17.013Z,0
2018-07-13T03:16:26.209Z,0
2018-07-13T03:17:34.856Z,0
2018-07-13T03:18:43.503Z,0
2018-07-13T03:19:52.420Z,5
2018-07-13T03:21:01.381Z,5
2018-07-13T03:22:10.976Z,5
2018-07-13T03:23:20.152Z,5
2018-07-13T03:24:28.802Z,5
2018-07-13T03:25:37.443Z,5
2018-07-13T03:26:46.372Z,5
2018-07-13T03:27:55.002Z,5
2018-07-13T03:29:03.657Z,5
2018-07-13T03:30:12.560Z,5
2018-07-13T03:31:21.739Z,10
2018-07-13T03:32:30.648Z,10
2018-07-13T03:33:39.564Z,10
2018-07-13T03:34:48.205Z,10
2018-07-13T03:35:57.122Z,10
2018-07-13T03:37:05.765Z,10
2018-07-13T03:38:14.422Z,10
2018-07-13T03:39:23.063Z,10
2018-07-13T03:40:31.703Z,15
2018-07-13T03:41:40.605Z,15
2018-07-13T03:42:49.512Z,15
2018-07-13T03:43:58.165Z,15
2018-07-13T03:45:07.076Z,20
2018-07-13T03:46:15.986Z,20
2018-07-13T03:47:24.626Z,20
2018-07-13T03:48:33.277Z,20
2018-07-13T03:49:41.927Z,25
2018-07-13T03:50:50.572Z,25
2018-07-13T03:51:59.213Z,25
2018-07-13T03:53:07.859Z,30
2018-07-13T03:54:16.565Z,30
2018-07-13T03:55:25.149Z,30
2018-07-13T03:56:33.792Z,35
2018-07-13T03:57:42.442Z,35
2018-07-13T03:58:51.084Z,40
2018-07-13T03:59:59.728Z,40
2018-07-13T04:01:08.641Z,40
2018-07-13T04:02:17.287Z,40
2018-07-13T04:03:25.936Z,40
2018-07-13T04:04:34.584Z,40
2018-07-13T04:05:43.229Z,40
2018-07-13T04:06:51.868Z,45
2018-07-13T04:08:00.771Z,45
2018-07-13T04:09:09.416Z,45
2018-07-13T04:10:18.065Z,50
2018-07-13T04:11:26.708Z,50
2018-07-13T04:12:35.356Z,50
2018-07-13T04:13:44.274Z,55
2018-07-13T04:14:52.923Z,50
2018-07-13T04:16:01.566Z,50
2018-07-13T04:17:10.210Z,50
2018-07-13T04:18:19.118Z,50
2018-07-13T04:19:27.758Z,45
2018-07-13T04:20:36.409Z,45
2018-07-13T04:21:45.056Z,40
2018-07-13T04:22:53.966Z,40
2018-07-13T04:24:02.605Z,40
2018-07-13T04:25:11.255Z,45
2018-07-13T04:26:19.899Z,45
2018-07-13T04:27:28.545Z,45
2018-07-13T04:28:37.199Z,45
2018-07-13T04:29:45.837Z,45
2018-07-13T04:30:54.479Z,45
2018-07-13T04:32:03.396Z,50
2018-07-13T04:33:12.040Z,50
2018-07-13T04:34:20.792Z,55
2018-07-13T04:35:29.331Z,55
2018-07-13T04:36:37.979Z,55
2018-07-13T04:37:46.624Z,55
2018-07-13T04:38:55.265Z,60
2018-07-13T04:40:03.914Z,60
2018-07-13T04:41:12.629Z,65
2018-07-13T04:42:21.210Z,65
2018-07-13T04:43:29.844Z,65
2018-07-13T04:44:38.492Z,70
2018-07-13T04:45:47.395Z,70
2018-07-13T04:46:56.050Z,70
2018-07-13T04:48:04.949Z,70
2018-07-13T04:49:13.596Z,65
2018-07-13T04:50:22.239Z,70
2018-07-13T04:51:30.892Z,75
2018-07-13T04:52:39.535Z,75
2018-07-13T04:53:48.699Z,80
2018-07-13T04:54:57.341Z,75
2018-07-13T04:56:05.985Z,70
2018-07-13T04:57:14.639Z,75
2018-07-13T04:58:23.279Z,70
2018-07-13T04:59:31.929Z,65
2018-07-13T05:00:40.900Z,75
2018-07-13T05:01:49.573Z,75
2018-07-13T05:02:58.167Z,70
2018-07-13T05:04:06.817Z,75
2018-07-13T05:05:15.452Z,75
2018-07-13T05:06:24.387Z,75
2018-07-13T05:07:33.029Z,70
2018-07-13T05:08:41.677Z,70
2018-07-13T05:09:50.313Z,75
2018-07-13T05:10:58.961Z,75
2018-07-13T05:12:07.616Z,80
2018-07-13T05:13:16.265Z,85
2018-07-13T05:14:25.182Z,70
2018-07-13T05:15:33.818Z,75
2018-07-13T05:16:42.466Z,80
2018-07-13T05:17:51.109Z,80
2018-07-13T05:18:59.760Z,75
2018-07-13T05:20:08.396Z,85
2018-07-13T05:21:17.060Z,85
2018-07-13T05:22:25.689Z,90
2018-07-13T05:23:34.868Z,105
2018-07-13T05:24:43.764Z,110
2018-07-13T05:25:52.683Z,105
2018-07-13T05:27:01.350Z,100
2018-07-13T05:28:09.980Z,110
2018-07-13T05:29:18.620Z,115
2018-07-13T05:30:27.536Z,105
2018-07-13T05:31:36.447Z,100
2018-07-13T05:32:45.089Z,95
2018-07-13T05:33:53.749Z,80
2018-07-13T05:35:02.661Z,70
2018-07-13T05:36:11.310Z,80
2018-07-13T05:37:19.947Z,80
2018-07-13T05:38:28.610Z,85
2018-07-13T05:39:37.250Z,85
2018-07-13T05:40:45.893Z,100
2018-07-13T05:41:54.551Z,95
2018-07-13T05:43:03.453Z,80
2018-07-13T05:44:12.100Z,80
2018-07-13T05:45:20.743Z,85
2018-07-13T05:46:29.398Z,80
2018-07-13T05:47:38.045Z,95
2018-07-13T05:48:46.683Z,100
2018-07-13T05:49:55.326Z,105
2018-07-13T05:51:04.238Z,110
2018-07-13T05:52:12.900Z,100
2018-07-13T05:53:21.801Z,100
2018-07-13T05:54:30.455Z,105
2018-07-13T05:55:39.092Z,100
2018-07-13T05:56:47.746Z,95
2018-07-13T05:57:56.389Z,95
2018-07-13T05:59:05.298Z,100
2018-07-13T06:00:13.938Z,100
2018-07-13T06:01:22.594Z,100
2018-07-13T06:02:31.238Z,100
2018-07-13T06:03:39.890Z,95
2018-07-13T06:04:48.528Z,105
2018-07-13T06:05:57.177Z,120
2018-07-13T06:07:05.830Z,130
2018-07-13T06:08:14.486Z,140
2018-07-13T06:09:23.133Z,125
2018-07-13T06:10:31.778Z,120
2018-07-13T06:11:40.423Z,110
2018-07-13T06:12:49.065Z,105
2018-07-13T06:13:57.718Z,110
2018-07-13T06:15:06.701Z,120
2018-07-13T06:16:15.320Z,115
2018-07-13T06:17:23.960Z,130
2018-07-13T06:18:32.614Z,130
2018-07-13T06:19:41.253Z,125
2018-07-13T06:20:49.901Z,130
2018-07-13T06:21:58.545Z,140
2018-07-13T06:23:07.204Z,140
2018-07-13T06:24:16.211Z,130
2018-07-13T06:25:24.797Z,130
2018-07-13T06:26:33.441Z,125
2018-07-13T06:27:42.347Z,125
2018-07-13T06:28:51.276Z,140
2018-07-13T06:29:59.920Z,145
2018-07-13T06:31:08.838Z,140
2018-07-13T06:32:17.483Z,135
2018-07-13T06:33:26.131Z,125
2018-07-13T06:34:34.770Z,135
2018-07-13T06:35:43.694Z,140
2018-07-13T06:36:52.600Z,135
2018-07-13T06:38:01.252Z,135
2018-07-13T06:39:09.896Z,135
2018-07-13T06:40:18.543Z,140
2018-07-13T06:41:27.185Z,140
2018-07-13T06:42:35.835Z,140
2018-07-13T06:43:44.480Z,140
2018-07-13T06:44:53.848Z,140
2018-07-13T06:46:02.711Z,140
2018-07-13T06:47:11.357Z,140
2018-07-13T06:48:20.268Z,145
2018-07-13T06:49:28.916Z,145
2018-07-13T06:50:37.597Z,145
2018-07-13T06:51:46.209Z,145
2018-07-13T06:52:54.855Z,145
2018-07-13T06:54:03.772Z,135
2018-07-13T06:55:12.422Z,130
2018-07-13T06:56:21.065Z,140
2018-07-13T06:57:29.715Z,150
2018-07-13T06:58:38.361Z,135
2018-07-13T06:59:47.272Z,140
2018-07-13T07:00:55.916Z,140
2018-07-13T07:02:04.563Z,150
2018-07-13T07:03:13.207Z,140
2018-07-13T07:04:21.851Z,145
2018-07-13T07:05:30.501Z,150
2018-07-13T07:06:39.149Z,135
2018-07-13T07:07:47.796Z,155
2018-07-13T07:08:56.440Z,210
2018-07-13T07:10:05.361Z,225
2018-07-13T07:11:14.009Z,210
2018-07-13T07:12:22.657Z,220
2018-07-13T07:13:31.304Z,230
2018-07-13T07:14:39.956Z,235
2018-07-13T07:15:48.601Z,225
2018-07-13T07:16:57.262Z,210
2018-07-13T07:18:06.166Z,200
2018-07-13T07:19:14.814Z,180
2018-07-13T07:20:23.463Z,185
2018-07-13T07:21:32.113Z,210
2018-07-13T07:22:41.030Z,220
2018-07-13T07:23:49.670Z,235
2018-07-13T07:24:58.314Z,255
2018-07-13T07:26:06.968Z,255
2018-07-13T07:27:15.618Z,260
2018-07-13T07:28:24.523Z,250
2018-07-13T07:29:33.725Z,235
2018-07-13T07:30:42.754Z,240
2018-07-13T07:31:51.881Z,240
2018-07-13T07:33:00.787Z,255
2018-07-13T07:34:09.433Z,260
2018-07-13T07:35:18.077Z,270
2018-07-13T07:36:26.736Z,285
2018-07-13T07:37:35.382Z,315
2018-07-13T07:38:44.419Z,335
2018-07-13T07:39:53.073Z,310
2018-07-13T07:41:01.977Z,300
2018-07-13T07:42:10.628Z,295
2018-07-13T07:43:19.275Z,290
2018-07-13T07:44:27.927Z,275
2018-07-13T07:45:36.570Z,260
2018-07-13T07:46:45.222Z,265
2018-07-13T07:47:53.869Z,285
2018-07-13T07:49:02.517Z,295
2018-07-13T07:50:11.580Z,300
2018-07-13T07:51:24.381Z,275
2018-07-13T07:52:33.293Z,240
2018-07-13T07:53:42.217Z,230
2018-07-13T07:54:50.857Z,230
2018-07-13T07:55:59.510Z,200
2018-07-13T07:57:08.535Z,190
2018-07-13T07:58:17.190Z,185
2018-07-13T07:59:25.841Z,215
2018-07-13T08:00:34.485Z,190
2018-07-13T08:01:43.205Z,220
2018-07-13T08:02:52.157Z,240
2018-07-13T08:04:00.744Z,250
2018-07-13T08:05:09.654Z,260
2018-07-13T08:06:18.439Z,280
2018-07-13T08:07:27.405Z,280
2018-07-13T08:08:35.979Z,250
2018-07-13T08:09:44.621Z,275
2018-07-13T08:10:53.269Z,265
2018-07-13T08:12:02.183Z,270
2018-07-13T08:13:10.834Z,235
2018-07-13T08:14:19.663Z,200
2018-07-13T08:15:28.127Z,180
2018-07-13T08:16:37.036Z,175
2018-07-13T08:17:45.678Z,175
2018-07-13T08:18:54.334Z,190
2018-07-13T08:20:02.982Z,200
2018-07-13T08:21:11.623Z,180
2018-07-13T08:22:20.529Z,200
2018-07-13T08:23:29.181Z,260
2018-07-13T08:24:37.828Z,265
2018-07-13T08:25:46.478Z,255
2018-07-13T08:26:55.119Z,245
2018-07-13T08:28:03.770Z,240
2018-07-13T08:29:12.416Z,230
2018-07-13T08:30:21.065Z,215
2018-07-13T08:31:29.709Z,200
2018-07-13T08:32:38.358Z,195
2018-07-13T08:33:47.010Z,190
2018-07-13T08:34:55.923Z,185
2018-07-13T08:36:04.844Z,185
2018-07-13T08:37:13.488Z,185
2018-07-13T08:38:22.136Z,185
2018-07-13T08:39:30.780Z,185
2018-07-13T08:40:39.703Z,185
2018-07-13T08:41:48.343Z,185
2018-07-13T08:42:57.260Z,185
2018-07-13T08:44:05.948Z,185
2018-07-13T08:45:14.563Z,185
2018-07-13T08:46:23.204Z,185
2018-07-13T08:47:31.857Z,185
2018-07-13T08:48:40.503Z,180
2018-07-13T08:49:49.159Z,180
2018-07-13T08:50:57.805Z,180
2018-07-13T08:52:06.450Z,180
2018-07-13T08:53:15.371Z,180
2018-07-13T08:54:24.019Z,180
2018-07-13T08:55:32.679Z,180
2018-07-13T08:56:41.318Z,180
2018-07-13T08:57:49.971Z,180
2018-07-13T08:58:58.873Z,180
2018-07-13T09:00:07.530Z,180
2018-07-13T09:01:16.183Z,180
2018-07-13T09:02:24.828Z,180
2018-07-13T09:03:33.470Z,180
2018-07-13T09:04:42.516Z,180
2018-07-13T09:05:51.215Z,180
2018-07-13T09:06:59.805Z,180
2018-07-13T09:08:08.445Z,175
2018-07-13T09:09:17.097Z,180
2018-07-13T09:10:26.013Z,180
2018-07-13T09:11:34.664Z,180
2018-07-13T09:12:43.315Z,180
2018-07-13T09:13:51.956Z,180
2018-07-13T09:15:00.608Z,180
2018-07-13T09:16:09.519Z,180
2018-07-13T09:17:18.176Z,180
2018-07-13T09:18:26.822Z,180
2018-07-13T09:19:36.004Z,180
2018-07-13T09:20:44.654Z,180
2018-07-13T09:21:53.583Z,180
2018-07-13T09:23:02.241Z,180
2018-07-13T09:24:11.010Z,180
2018-07-13T09:25:19.528Z,180
2018-07-13T09:26:28.461Z,180
2018-07-13T09:27:37.368Z,175
2018-07-13T09:28:46.013Z,175
2018-07-13T09:29:54.669Z,190
2018-07-13T09:31:03.311Z,180
2018-07-13T09:32:11.970Z,180
2018-07-13T09:33:20.613Z,180
2018-07-13T09:34:29.555Z,180
2018-07-13T09:35:38.239Z,180
2018-07-13T09:36:46.842Z,180
2018-07-13T09:37:55.537Z,180
2018-07-13T09:39:04.142Z,180
2018-07-13T09:40:12.833Z,180
2018-07-13T09:41:21.440Z,180
2018-07-13T09:42:30.094Z,180
2018-07-13T09:43:38.745Z,180
2018-07-13T09:44:47.400Z,180
2018-07-13T09:45:56.048Z,180
2018-07-13T09:47:04.768Z,180
2018-07-13T09:48:13.342Z,180
2018-07-13T09:49:21.990Z,180
2018-07-13T09:50:30.989Z,180
2018-07-13T09:51:39.899Z,180
2018-07-13T09:52:48.820Z,180
2018-07-13T09:53:58.240Z,180
2018-07-13T09:55:06.685Z,180
2018-07-13T09:56:15.331Z,180
2018-07-13T09:57:23.983Z,180
2018-07-13T09:58:32.625Z,180
2018-07-13T09:59:41.282Z,180
2018-07-13T10:00:49.988Z,180
2018-07-13T10:01:58.590Z,180
2018-07-13T10:03:07.222Z,180
2018-07-13T10:04:15.871Z,180
2018-07-13T10:05:24.529Z,180
2018-07-13T10:06:33.176Z,180
2018-07-13T10:07:41.828Z,180
2018-07-13T10:08:50.468Z,180
2018-07-13T10:09:59.128Z,180
2018-07-13T10:11:08.031Z,180
2018-07-13T10:12:16.701Z,180
2018-07-13T10:13:25.621Z,180
2018-07-13T10:14:34.523Z,180
2018-07-13T10:15:43.170Z,180
2018-07-13T10:16:51.834Z,180
2018-07-13T10:18:00.475Z,180
2018-07-13T10:19:09.657Z,180
2018-07-13T10:20:18.302Z,185
2018-07-13T10:21:27.230Z,185
2018-07-13T10:22:35.887Z,185
2018-07-13T10:23:44.792Z,185
2018-07-13T10:24:53.438Z,185
2018-07-13T10:26:02.085Z,185
2018-07-13T10:27:10.742Z,185
2018-07-13T10:28:19.390Z,185
2018-07-13T10:29:28.041Z,190
2018-07-13T10:30:36.684Z,190
2018-07-13T10:31:45.347Z,190
2018-07-13T10:32:53.993Z,190
2018-07-13T10:34:02.644Z,190
2018-07-13T10:35:11.289Z,190
2018-07-13T10:36:19.945Z,190
2018-07-13T10:37:28.592Z,190
2018-07-13T10:38:37.245Z,195
2018-07-13T10:39:45.892Z,195
2018-07-13T10:40:54.546Z,190
2018-07-13T10:42:03.463Z,190
2018-07-13T10:43:12.115Z,190
2018-07-13T10:44:20.772Z,190
2018-07-13T10:45:29.672Z,190
2018-07-13T10:46:38.322Z,195
2018-07-13T10:47:47.019Z,195
2018-07-13T10:48:55.638Z,195
2018-07-13T10:50:04.295Z,195
2018-07-13T10:51:12.944Z,190
2018-07-13T10:52:21.594Z,195
2018-07-13T10:53:30.248Z,195
2018-07-13T10:54:38.894Z,195
2018-07-13T10:55:47.816Z,195
2018-07-13T10:56:56.512Z,200
2018-07-13T10:58:05.388Z,195
2018-07-13T10:59:14.037Z,195
2018-07-13T11:00:22.691Z,195
2018-07-13T11:01:31.341Z,195
2018-07-13T11:02:39.990Z,195
2018-07-13T11:03:48.643Z,195
2018-07-13T11:04:57.294Z,195
2018-07-13T11:06:05.973Z,195
2018-07-13T11:07:14.887Z,195
2018-07-13T11:08:23.551Z,195
2018-07-13T11:09:32.203Z,195
2018-07-13T11:10:41.177Z,195
2018-07-13T11:11:50.263Z,200
2018-07-13T11:12:58.920Z,200
2018-07-13T11:14:07.682Z,200
2018-07-13T11:15:16.228Z,200
2018-07-13T11:16:24.875Z,200
2018-07-13T11:17:33.528Z,200
2018-07-13T11:18:42.179Z,205
2018-07-13T11:19:50.868Z,200
2018-07-13T11:20:59.522Z,200
2018-07-13T11:22:08.169Z,195
2018-07-13T11:23:16.821Z,195
2018-07-13T11:24:25.518Z,195
2018-07-13T11:25:34.552Z,195
2018-07-13T11:26:43.202Z,195
2018-07-13T11:27:51.855Z,200
2018-07-13T11:29:00.506Z,200
2018-07-13T11:30:09.165Z,200
2018-07-13T11:31:17.807Z,200
2018-07-13T11:32:26.461Z,200
2018-07-13T11:33:35.108Z,195
2018-07-13T11:34:44.033Z,195
2018-07-13T11:35:52.954Z,195
2018-07-13T11:37:01.800Z,195
2018-07-13T11:38:10.250Z,200
2018-07-13T11:39:18.900Z,200
2018-07-13T11:40:27.560Z,200
2018-07-13T11:41:36.473Z,200
2018-07-13T11:42:45.131Z,200
2018-07-13T11:43:53.775Z,200
2018-07-13T11:45:02.432Z,200
2018-07-13T11:46:11.078Z,200
2018-07-13T11:47:19.745Z,200
2018-07-13T11:48:28.382Z,200
2018-07-13T11:49:37.045Z,200
2018-07-13T11:50:45.696Z,200
2018-07-13T11:51:54.347Z,200
2018-07-13T11:53:02.991Z,200
2018-07-13T11:54:11.913Z,200
2018-07-13T11:55:20.569Z,200
2018-07-13T11:56:29.224Z,200
2018-07-13T11:57:37.878Z,200
2018-07-13T11:58:46.522Z,200
2018-07-13T11:59:55.186Z,200
2018-07-13T12:01:04.098Z,200
2018-07-13T12:02:12.759Z,205
2018-07-13T12:03:21.403Z,200
2018-07-13T12:04:30.060Z,200
2018-07-13T12:05:38.706Z,200
2018-07-13T12:06:47.630Z,195
2018-07-13T12:07:56.274Z,205
2018-07-13T12:09:04.929Z,205
2018-07-13T12:10:13.580Z,200
2018-07-13T12:11:22.242Z,205
2018-07-13T12:12:30.915Z,205
2018-07-13T12:13:40.107Z,205
2018-07-13T12:14:48.755Z,205
2018-07-13T12:15:57.409Z,210
2018-07-13T12:17:06.070Z,210
2018-07-13T12:18:14.713Z,205
2018-07-13T12:19:23.368Z,205
2018-07-13T12:20:32.012Z,205
2018-07-13T12:21:40.675Z,205
2018-07-13T12:22:49.325Z,215
2018-07-13T12:23:58.351Z,220
2018-07-13T12:25:06.938Z,215
2018-07-13T12:26:15.602Z,210
2018-07-13T12:27:24.247Z,210
2018-07-13T12:28:33.157Z,205
2018-07-13T12:29:41.803Z,220
2018-07-13T12:30:50.464Z,215
2018-07-13T12:31:59.380Z,220
2018-07-13T12:33:08.385Z,205
2018-07-13T12:34:17.048Z,205
2018-07-13T12:35:25.700Z,140
2018-07-13T12:36:34.356Z,155
2018-07-13T12:37:43.005Z,135
2018-07-13T12:38:52.186Z,205
2018-07-13T12:40:00.835Z,210
2018-07-13T12:41:09.485Z,205
2018-07-13T12:42:18.136Z,205
2018-07-13T12:43:27.054Z,220
2018-07-13T12:44:35.702Z,235
2018-07-13T12:45:44.653Z,250
2018-07-13T12:46:53.732Z,255
2018-07-13T12:48:02.416Z,245
2018-07-13T12:49:11.152Z,225
2018-07-13T12:50:20.201Z,145
2018-07-13T12:51:29.114Z,125
2018-07-13T12:52:38.035Z,175
2018-07-13T12:53:46.732Z,165
2018-07-13T12:54:55.337Z,225
2018-07-13T12:56:04.024Z,165
2018-07-13T12:57:12.676Z,150
2018-07-13T12:58:21.334Z,240
2018-07-13T12:59:31.086Z,240
2018-07-13T13:00:39.666Z,225
2018-07-13T13:01:48.315Z,220
2018-07-13T13:02:56.973Z,215
2018-07-13T13:04:05.622Z,215
2018-07-13T13:05:14.552Z,220
2018-07-13T13:06:23.199Z,230
2018-07-13T13:07:31.854Z,245
2018-07-13T13:08:40.507Z,250
2018-07-13T13:09:49.161Z,250
2018-07-13T13:10:58.082Z,240
2018-07-13T13:12:06.732Z,225
2018-07-13T13:13:15.383Z,220
2018-07-13T13:14:24.035Z,215
2018-07-13T13:15:32.694Z,220
2018-07-13T13:16:41.342Z,230
2018-07-13T13:17:49.994Z,170
2018-07-13T13:18:58.914Z,165
2018-07-13T13:20:07.571Z,225
2018-07-13T13:21:16.218Z,250
2018-07-13T13:22:25.139Z,240
2018-07-13T13:23:33.812Z,240
2018-07-13T13:24:42.473Z,235
2018-07-13T13:25:51.126Z,235
2018-07-13T13:27:00.221Z,215
2018-07-13T13:28:08.890Z,250
2018-07-13T13:29:17.905Z,250
2018-07-13T13:30:26.524Z,260
2018-07-13T13:31:35.242Z,265
2018-07-13T13:32:44.157Z,270
2018-07-13T13:33:52.812Z,275
2018-07-13T13:35:01.459Z,270
2018-07-13T13:36:10.375Z,265
2018-07-13T13:37:19.292Z,270
2018-07-13T13:38:27.951Z,260
2018-07-13T13:39:36.861Z,255
2018-07-13T13:40:45.516Z,265
2018-07-13T13:41:54.166Z,260
2018-07-13T13:43:02.823Z,255
2018-07-13T13:44:11.472Z,245
2018-07-13T13:45:20.184Z,235
2018-07-13T13:46:28.842Z,250
2018-07-13T13:47:37.498Z,255
2018-07-13T13:48:46.686Z,255
2018-07-13T13:49:55.337Z,160
2018-07-13T13:51:03.993Z,150
2018-07-13T13:52:12.642Z,150
2018-07-13T13:53:21.298Z,170
2018-07-13T13:54:29.953Z,125
2018-07-13T13:55:38.604Z,120
2018-07-13T13:56:47.254Z,125
2018-07-13T13:57:55.910Z,200
2018-07-13T13:59:04.820Z,150
2018-07-13T14:00:13.475Z,170
2018-07-13T14:01:22.124Z,240
2018-07-13T14:02:30.782Z,135
2018-07-13T14:03:39.434Z,130
2018-07-13T14:04:48.090Z,135
2018-07-13T14:05:56.748Z,125
2018-07-13T14:07:05.661Z,125
2018-07-13T14:08:14.314Z,135
2018-07-13T14:09:23.062Z,220
2018-07-13T14:10:31.624Z,145
2018-07-13T14:11:40.271Z,150
2018-07-13T14:12:48.929Z,210
2018-07-13T14:13:57.838Z,245
2018-07-13T14:15:06.759Z,165
2018-07-13T14:16:15.408Z,250
2018-07-13T14:17:24.065Z,260
2018-07-13T14:18:32.717Z,255
2018-07-13T14:19:41.636Z,245
2018-07-13T14:20:50.286Z,235
2018-07-13T14:21:59.196Z,235
2018-07-13T14:23:07.854Z,240
2018-07-13T14:24:16.505Z,245
2018-07-13T14:25:25.160Z,245
2018-07-13T14:26:33.810Z,165
2018-07-13T14:27:42.730Z,175
2018-07-13T14:28:51.373Z,175
2018-07-13T14:30:00.306Z,170
2018-07-13T14:31:08.955Z,175
2018-07-13T14:32:17.610Z,250
2018-07-13T14:33:26.253Z,230
2018-07-13T14:34:35.263Z,210
2018-07-13T14:35:43.843Z,215
2018-07-13T14:36:52.499Z,135
2018-07-13T14:38:01.144Z,135
2018-07-13T14:39:09.799Z,135
2018-07-13T14:40:18.528Z,140
2018-07-13T14:41:27.121Z,140
2018-07-13T14:42:35.777Z,140
2018-07-13T14:43:44.723Z,140
2018-07-13T14:44:53.386Z,200
2018-07-13T14:46:02.034Z,200
2018-07-13T14:47:11.177Z,230
2018-07-13T14:48:19.620Z,225
2018-07-13T14:49:28.273Z,240
2018-07-13T14:50:36.921Z,245
2018-07-13T14:51:45.584Z,245
2018-07-13T14:52:57.275Z,250
2018-07-13T14:54:09.555Z,250
2018-07-13T14:55:21.812Z,245
2018-07-13T14:56:30.739Z,240
2018-07-13T14:57:39.390Z,230
2018-07-13T14:58:48.040Z,220
2018-07-13T14:59:56.693Z,210
2018-07-13T15:01:05.342Z,200
2018-07-13T15:02:14.004Z,190
2018-07-13T15:03:22.650Z,160
2018-07-13T15:04:31.754Z,120
2018-07-13T15:05:40.447Z,115
2018-07-13T15:06:49.124Z,115
2018-07-13T15:07:57.715Z,130
2018-07-13T15:09:06.372Z,120
2018-07-13T15:10:15.085Z,135
2018-07-13T15:11:23.941Z,180
2018-07-13T15:12:32.590Z,175
2018-07-13T15:13:41.246Z,120
2018-07-13T15:14:49.895Z,125
2018-07-13T15:15:58.544Z,125
2018-07-13T15:17:07.200Z,135
2018-07-13T15:18:15.853Z,185
2018-07-13T15:19:24.506Z,135
2018-07-13T15:20:33.152Z,130
2018-07-13T15:21:42.396Z,125
2018-07-13T15:22:51.025Z,125
2018-07-13T15:23:59.692Z,125
2018-07-13T15:25:08.866Z,165
2018-07-13T15:26:17.517Z,140
2018-07-13T15:27:26.168Z,185
2018-07-13T15:28:34.819Z,185
2018-07-13T15:29:43.475Z,195
2018-07-13T15:30:52.125Z,190
2018-07-13T15:32:00.790Z,140
2018-07-13T15:33:09.421Z,135
2018-07-13T15:34:18.082Z,140
2018-07-13T15:35:26.732Z,145
2018-07-13T15:36:35.648Z,150
2018-07-13T15:37:44.302Z,195
2018-07-13T15:38:52.950Z,205
2018-07-13T15:40:01.602Z,160
2018-07-13T15:41:10.257Z,185
2018-07-13T15:42:18.912Z,130
2018-07-13T15:43:27.635Z,130
2018-07-13T15:44:36.258Z,135
2018-07-13T15:45:45.183Z,125
2018-07-13T15:46:54.101Z,120
2018-07-13T15:48:02.751Z,120
2018-07-13T15:49:11.671Z,170
2018-07-13T15:50:20.324Z,165
2018-07-13T15:51:28.978Z,165
2018-07-13T15:52:37.636Z,160
2018-07-13T15:53:46.284Z,170
2018-07-13T15:54:54.934Z,155
2018-07-13T15:56:03.846Z,150
2018-07-13T15:57:12.504Z,150
2018-07-13T15:58:21.157Z,160
2018-07-13T15:59:29.814Z,160
2018-07-13T16:00:38.461Z,155
2018-07-13T16:01:47.114Z,150
2018-07-13T16:02:55.766Z,150
2018-07-13T16:04:04.418Z,150
2018-07-13T16:05:13.411Z,145